Portola, California
Current Conditions -  °F | °C
As of 9:55 PM on Sunday 19 Oct 2014 (Local Time) from KRTS Reporting Station
Clear Clear  
Wind Chill: 12°   Ceiling: Unl
Heat Index: 12°   Visibility: 10mi
Dew Point: -2°   Wind: 3mph
Humidity: 38%   Direction: 40°NE
Pressure: 29.99"   Gusts: NA
Location:  39.81°N, 120.47°W
Report Text: KRTS 200455Z AUTO 04003KT 10SM CLR 12/M02 A2999 RMK AO2
Loading
Personal Weather Stations






























Interactive Weather Map New forecast layout! Learn more

10-Day Weather Forecast

Advertisements
Track Severe Weather on mobile